Seabourn Quest — C6YZ5 — position and weather

sailwx.info

Track history (hours):
 
Tides and Currents Weather Stations Pressure Air Temp Water Temp Dewpoint Dewpoint Depression Visibility Wind Speed Wind Dir Waves Ship Positions

Seabourn Quest

Last reported at 2016-Apr-30 21:04 UTC. Time now 2016-May-03 04:53 UTC.
Position N 39°11' W 009°45'.

Length 198 m; draft 6.7 m.

Type: Ship. MMSI: 311038900.

Date/timePositionNaut miles runAvg speedWind from/ knotsBaromVisibWave heightAir tempDewpointWater temp
2016-Apr-30 21:04N 39°11' W 009°45'611.9
2016-Apr-30 20:33N 39°05' W 009°45'1212.3
2016-Apr-30 19:33N 38°53' W 009°43'1212.2
2016-Apr-30 18:33N 38°41' W 009°41'1212.3
2016-Apr-30 17:33N 38°36' W 009°27'1212.1
2016-Apr-30 16:33N 38°41' W 009°13'4 4.3
2016-Apr-30 15:31N 38°43' W 009°07'0 0.0
2016-Apr-30 14:29N 38°43' W 009°07'0 0.0
2016-Apr-30 13:31N 38°43' W 009°07'0 0.0
2016-Apr-30 12:22N 38°43' W 009°07'0 0.0
2016-Apr-30 11:33N 38°43' W 009°07'0 0.0
2016-Apr-30 10:32N 38°43' W 009°07'0 0.0
2016-Apr-30 09:27N 38°43' W 009°07'0 0.0
2016-Apr-30 08:31N 38°43' W 009°07'0 0.0
2016-Apr-30 07:26N 38°43' W 009°07'0 0.0
2016-Apr-30 06:31N 38°43' W 009°07'2 1.9
2016-Apr-30 05:33N 38°42' W 009°09'1111.1
2016-Apr-30 04:33N 38°37' W 009°22'1211.7
2016-Apr-30 03:33N 38°26' W 009°23'1212.3
2016-Apr-30 02:33N 38°13' W 009°24'1313.3
2016-Apr-30 01:33N 38°00' W 009°24'1313.1
2016-Apr-30 00:34N 37°47' W 009°23'5212.9
2016-Apr-29 20:32N 36°55' W 009°20'1312.4
2016-Apr-29 19:28N 36°45' W 009°10'3512.0
2016-Apr-29 16:32N 37°05' W 008°33'3 2.2
2016-Apr-29 15:03N 37°08' W 008°32'0 0.0
2016-Apr-29 11:32N 37°08' W 008°32'0 0.0
2016-Apr-29 10:31N 37°08' W 008°32'0 0.0
2016-Apr-29 09:27N 37°08' W 008°32'0 0.0
2016-Apr-29 08:31N 37°08' W 008°32'0 0.0
2016-Apr-29 07:31N 37°08' W 008°32'0 0.1
2016-Apr-29 06:30N 37°08' W 008°32'7 7.6
2016-Apr-29 05:33N 37°01' W 008°29'1312.9
2016-Apr-29 04:33N 36°54' W 008°15'14212.8
2016-Apr-28 17:29N 35°59' W 005°32'13 9.9
2016-Apr-28 16:13N 36°09' W 005°23'0 0.0
2016-Apr-28 05:24N 36°09' W 005°22'6 6.7
2016-Apr-28 04:34N 36°04' W 005°19'229 4.8
2016-Apr-26 04:31N 37°31' W 000°55'1112.0
2016-Apr-26 03:34N 37°32' W 000°41'1211.7
2016-Apr-26 02:33N 37°39' W 000°28'5112.1
2016-Apr-25 22:21N 38°05' E 000°27'6911.0
2016-Apr-25 16:07N 38°49' E 001°34'7 0.7
2016-Apr-25 05:17N 38°54' E 001°27'16 7.7
2016-Apr-25 03:09N 39°03' E 001°44'711.2
2016-Apr-25 02:33N 39°09' E 001°47'1211.6
2016-Apr-25 01:32N 39°20' E 001°53'1211.8
2016-Apr-25 00:34N 39°31' E 001°59'1211.8
2016-Apr-24 23:33N 39°41' E 002°06'1111.3
2016-Apr-24 22:33N 39°51' E 002°14'1211.6
2016-Apr-24 21:33N 40°01' E 002°21'1111.3
2016-Apr-24 20:33N 40°11' E 002°29'1111.4
2016-Apr-24 19:33N 40°21' E 002°36'1111.4
2016-Apr-24 18:33N 40°31' E 002°44'1111.4
2016-Apr-24 17:33N 40°41' E 002°51'1211.6
2016-Apr-24 16:33N 40°51' E 002°58'14111.7
2016-Apr-24 04:33N 42°46' E 004°49'10610.6
2016-Apr-23 18:33N 43°23' E 007°04'1212.0
2016-Apr-23 17:33N 43°33' E 007°15'1211.8
2016-Apr-23 16:34N 43°42' E 007°25'3 2.7
2016-Apr-23 15:33N 43°44' E 007°26'0 0.0
2016-Apr-23 14:32N 43°44' E 007°26'0 0.0
2016-Apr-23 13:32N 43°44' E 007°26'0 0.0
2016-Apr-23 12:32N 43°44' E 007°26'0 0.0
2016-Apr-23 10:32N 43°44' E 007°26'0 0.0
2016-Apr-23 09:32N 43°44' E 007°26'0 0.0
2016-Apr-23 08:32N 43°44' E 007°26'0 0.0
2016-Apr-23 07:16N 43°44' E 007°26'0 0.0
2016-Apr-23 06:28N 43°44' E 007°26'64 9.3
2016-Apr-22 23:33N 44°06' E 008°50'1110.9
2016-Apr-22 22:33N 44°16' E 008°57'9 8.5
2016-Apr-22 21:33N 44°24' E 008°55'0 0.1
2016-Apr-22 20:30N 44°24' E 008°56'0 0.0
2016-Apr-22 19:30N 44°24' E 008°56'0 0.0
2016-Apr-22 18:33N 44°24' E 008°56'0 0.0
2016-Apr-22 17:24N 44°24' E 008°56'0 0.0
2016-Apr-22 16:18N 44°24' E 008°56'0 0.0
2016-Apr-22 15:30N 44°24' E 008°56'0 0.0
2016-Apr-22 14:24N 44°24' E 008°56'0 0.0
2016-Apr-22 13:33N 44°24' E 008°56'0 0.0
2016-Apr-22 12:24N 44°24' E 008°56'0 0.0
2016-Apr-22 11:27N 44°24' E 008°56'0 0.0
2016-Apr-22 10:30N 44°24' E 008°56'0 0.0
2016-Apr-22 09:12N 44°24' E 008°56'0 0.0
2016-Apr-22 07:24N 44°24' E 008°56'0 0.0
2016-Apr-22 06:30N 44°24' E 008°56'0 0.0
2016-Apr-22 04:24N 44°24' E 008°56'0 0.0
2016-Apr-22 03:24N 44°24' E 008°56'0 0.0
2016-Apr-22 02:30N 44°24' E 008°56'0 0.0
2016-Apr-22 01:30N 44°24' E 008°56'0 0.0
2016-Apr-22 00:30N 44°24' E 008°56'0 0.0
2016-Apr-21 23:30N 44°24' E 008°56'0 0.0
2016-Apr-21 22:06N 44°24' E 008°56'0 0.0
2016-Apr-21 21:30N 44°24' E 008°56'0 0.0
2016-Apr-21 20:24N 44°24' E 008°56'0 0.0
2016-Apr-21 19:33N 44°24' E 008°56'0 0.0
2016-Apr-21 18:06N 44°24' E 008°56'0 0.0
2016-Apr-21 17:30N 44°24' E 008°56'0 0.0
2016-Apr-21 16:24N 44°24' E 008°56'0 0.0
2016-Apr-21 15:24N 44°24' E 008°56'0 0.0
2016-Apr-21 13:30N 44°24' E 008°56'0 0.0
2016-Apr-21 12:24N 44°24' E 008°56'0 0.0
2016-Apr-21 11:30N 44°24' E 008°56'0 0.0
2016-Apr-21 10:30N 44°24' E 008°56'0 0.0
2016-Apr-21 09:27N 44°24' E 008°56'0 0.0
2016-Apr-21 08:18N 44°24' E 008°56'0 0.0
2016-Apr-21 07:18N 44°24' E 008°56'0 0.0
2016-Apr-21 06:18N 44°24' E 008°56'0 0.0
2016-Apr-21 05:18N 44°24' E 008°56'0 0.0
2016-Apr-21 04:12N 44°24' E 008°56'0 0.0
2016-Apr-21 03:24N 44°24' E 008°56'0 0.0
2016-Apr-21 02:12N 44°24' E 008°56'0 0.0
2016-Apr-21 01:24N 44°24' E 008°56'0 0.0
2016-Apr-21 00:18N 44°24' E 008°56'0 0.0
2016-Apr-20 23:30N 44°24' E 008°56'0 0.0
2016-Apr-20 22:30N 44°24' E 008°56'  
Track history (hours):
 
Tides and Currents Weather Stations Pressure Air Temp Water Temp Dewpoint Dewpoint Depression Visibility Wind Speed Wind Dir Waves Ship Positions

Seabourn Quest

Last reported at 2016-Apr-30 21:04 UTC. Time now 2016-May-03 04:53 UTC.
Position N 39°11' W 009°45'.

Length 198 m; draft 6.7 m.

Type: Ship. MMSI: 311038900.

Date/timePositionNaut miles runAvg speedWind from/ knotsBaromVisibWave heightAir tempDewpointWater temp
2016-Apr-30 21:04N 39°11' W 009°45'611.9
2016-Apr-30 20:33N 39°05' W 009°45'1212.3
2016-Apr-30 19:33N 38°53' W 009°43'1212.2
2016-Apr-30 18:33N 38°41' W 009°41'1212.3
2016-Apr-30 17:33N 38°36' W 009°27'1212.1
2016-Apr-30 16:33N 38°41' W 009°13'4 4.3
2016-Apr-30 15:31N 38°43' W 009°07'0 0.0
2016-Apr-30 14:29N 38°43' W 009°07'0 0.0
2016-Apr-30 13:31N 38°43' W 009°07'0 0.0
2016-Apr-30 12:22N 38°43' W 009°07'0 0.0
2016-Apr-30 11:33N 38°43' W 009°07'0 0.0
2016-Apr-30 10:32N 38°43' W 009°07'0 0.0
2016-Apr-30 09:27N 38°43' W 009°07'0 0.0
2016-Apr-30 08:31N 38°43' W 009°07'0 0.0
2016-Apr-30 07:26N 38°43' W 009°07'0 0.0
2016-Apr-30 06:31N 38°43' W 009°07'2 1.9
2016-Apr-30 05:33N 38°42' W 009°09'1111.1
2016-Apr-30 04:33N 38°37' W 009°22'1211.7
2016-Apr-30 03:33N 38°26' W 009°23'1212.3
2016-Apr-30 02:33N 38°13' W 009°24'1313.3
2016-Apr-30 01:33N 38°00' W 009°24'1313.1
2016-Apr-30 00:34N 37°47' W 009°23'5212.9
2016-Apr-29 20:32N 36°55' W 009°20'1312.4
2016-Apr-29 19:28N 36°45' W 009°10'3512.0
2016-Apr-29 16:32N 37°05' W 008°33'3 2.2
2016-Apr-29 15:03N 37°08' W 008°32'0 0.0
2016-Apr-29 11:32N 37°08' W 008°32'0 0.0
2016-Apr-29 10:31N 37°08' W 008°32'0 0.0
2016-Apr-29 09:27N 37°08' W 008°32'0 0.0
2016-Apr-29 08:31N 37°08' W 008°32'0 0.0
2016-Apr-29 07:31N 37°08' W 008°32'0 0.1
2016-Apr-29 06:30N 37°08' W 008°32'7 7.6
2016-Apr-29 05:33N 37°01' W 008°29'1312.9
2016-Apr-29 04:33N 36°54' W 008°15'14212.8
2016-Apr-28 17:29N 35°59' W 005°32'13 9.9
2016-Apr-28 16:13N 36°09' W 005°23'0 0.0
2016-Apr-28 05:24N 36°09' W 005°22'6 6.7
2016-Apr-28 04:34N 36°04' W 005°19'229 4.8
2016-Apr-26 04:31N 37°31' W 000°55'1112.0
2016-Apr-26 03:34N 37°32' W 000°41'1211.7
2016-Apr-26 02:33N 37°39' W 000°28'5112.1
2016-Apr-25 22:21N 38°05' E 000°27'6911.0
2016-Apr-25 16:07N 38°49' E 001°34'7 0.7
2016-Apr-25 05:17N 38°54' E 001°27'16 7.7
2016-Apr-25 03:09N 39°03' E 001°44'711.2
2016-Apr-25 02:33N 39°09' E 001°47'1211.6
2016-Apr-25 01:32N 39°20' E 001°53'1211.8
2016-Apr-25 00:34N 39°31' E 001°59'1211.8
2016-Apr-24 23:33N 39°41' E 002°06'1111.3
2016-Apr-24 22:33N 39°51' E 002°14'1211.6
2016-Apr-24 21:33N 40°01' E 002°21'1111.3
2016-Apr-24 20:33N 40°11' E 002°29'1111.4
2016-Apr-24 19:33N 40°21' E 002°36'1111.4
2016-Apr-24 18:33N 40°31' E 002°44'1111.4
2016-Apr-24 17:33N 40°41' E 002°51'1211.6
2016-Apr-24 16:33N 40°51' E 002°58'14111.7
2016-Apr-24 04:33N 42°46' E 004°49'10610.6
2016-Apr-23 18:33N 43°23' E 007°04'1212.0
2016-Apr-23 17:33N 43°33' E 007°15'1211.8
2016-Apr-23 16:34N 43°42' E 007°25'3 2.7
2016-Apr-23 15:33N 43°44' E 007°26'0 0.0
2016-Apr-23 14:32N 43°44' E 007°26'0 0.0
2016-Apr-23 13:32N 43°44' E 007°26'0 0.0
2016-Apr-23 12:32N 43°44' E 007°26'0 0.0
2016-Apr-23 10:32N 43°44' E 007°26'0 0.0
2016-Apr-23 09:32N 43°44' E 007°26'0 0.0
2016-Apr-23 08:32N 43°44' E 007°26'0 0.0
2016-Apr-23 07:16N 43°44' E 007°26'0 0.0
2016-Apr-23 06:28N 43°44' E 007°26'64 9.3
2016-Apr-22 23:33N 44°06' E 008°50'1110.9
2016-Apr-22 22:33N 44°16' E 008°57'9 8.5
2016-Apr-22 21:33N 44°24' E 008°55'0 0.1
2016-Apr-22 20:30N 44°24' E 008°56'0 0.0
2016-Apr-22 19:30N 44°24' E 008°56'0 0.0
2016-Apr-22 18:33N 44°24' E 008°56'0 0.0
2016-Apr-22 17:24N 44°24' E 008°56'0 0.0
2016-Apr-22 16:18N 44°24' E 008°56'0 0.0
2016-Apr-22 15:30N 44°24' E 008°56'0 0.0
2016-Apr-22 14:24N 44°24' E 008°56'0 0.0
2016-Apr-22 13:33N 44°24' E 008°56'0 0.0
2016-Apr-22 12:24N 44°24' E 008°56'0 0.0
2016-Apr-22 11:27N 44°24' E 008°56'0 0.0
2016-Apr-22 10:30N 44°24' E 008°56'0 0.0
2016-Apr-22 09:12N 44°24' E 008°56'0 0.0
2016-Apr-22 07:24N 44°24' E 008°56'0 0.0
2016-Apr-22 06:30N 44°24' E 008°56'0 0.0
2016-Apr-22 04:24N 44°24' E 008°56'0 0.0
2016-Apr-22 03:24N 44°24' E 008°56'0 0.0
2016-Apr-22 02:30N 44°24' E 008°56'0 0.0
2016-Apr-22 01:30N 44°24' E 008°56'0 0.0
2016-Apr-22 00:30N 44°24' E 008°56'0 0.0
2016-Apr-21 23:30N 44°24' E 008°56'0 0.0
2016-Apr-21 22:06N 44°24' E 008°56'0 0.0
2016-Apr-21 21:30N 44°24' E 008°56'0 0.0
2016-Apr-21 20:24N 44°24' E 008°56'0 0.0
2016-Apr-21 19:33N 44°24' E 008°56'0 0.0
2016-Apr-21 18:06N 44°24' E 008°56'0 0.0
2016-Apr-21 17:30N 44°24' E 008°56'0 0.0
2016-Apr-21 16:24N 44°24' E 008°56'0 0.0
2016-Apr-21 15:24N 44°24' E 008°56'0 0.0
2016-Apr-21 13:30N 44°24' E 008°56'0 0.0
2016-Apr-21 12:24N 44°24' E 008°56'0 0.0
2016-Apr-21 11:30N 44°24' E 008°56'0 0.0
2016-Apr-21 10:30N 44°24' E 008°56'0 0.0
2016-Apr-21 09:27N 44°24' E 008°56'0 0.0
2016-Apr-21 08:18N 44°24' E 008°56'0 0.0
2016-Apr-21 07:18N 44°24' E 008°56'0 0.0
2016-Apr-21 06:18N 44°24' E 008°56'0 0.0
2016-Apr-21 05:18N 44°24' E 008°56'0 0.0
2016-Apr-21 04:12N 44°24' E 008°56'0 0.0
2016-Apr-21 03:24N 44°24' E 008°56'0 0.0
2016-Apr-21 02:12N 44°24' E 008°56'0 0.0
2016-Apr-21 01:24N 44°24' E 008°56'0 0.0
2016-Apr-21 00:18N 44°24' E 008°56'0 0.0
2016-Apr-20 23:30N 44°24' E 008°56'0 0.0
2016-Apr-20 22:30N 44°24' E 008°56'  

Dump ship's entire track history